Time;durP1;ratioP1;P1;durP2;ratioP2;P2;SDS_P1;SDS_P2;PMS_P1;PMS_P2;Temp;Humidity;BMP_temperature;BMP_pressure;BME280_temperature;BME280_humidity;BME280_pressure;Samples;Min_cycle;Max_cycle;Signal;HPM_P1;HPM_P2
2023/12/04 00:00:47;;;;;;;;;;;6.90;75.90;;;;;;4998962;28;87889;-47
2023/12/04 00:03:13;;;;;;;;;;;6.90;76.00;;;;;;5001099;28;86956;-48
2023/12/04 00:05:38;;;;;;;;;;;6.90;76.10;;;;;;4997402;28;87530;-48
2023/12/04 00:08:04;;;;;;;;;;;6.80;76.00;;;;;;5004421;28;88615;-48
2023/12/04 00:10:29;;;;;;;;;;;6.80;76.00;;;;;;4998995;28;87060;-47
2023/12/04 00:12:55;;;;;;;;;;;6.80;75.90;;;;;;4995810;28;86995;-48
2023/12/04 00:15:21;;;;;;;;;;;6.80;75.90;;;;;;4997261;28;88433;-48
2023/12/04 00:17:47;;;;;;;;;;;6.80;76.10;;;;;;5002171;28;86415;-47
2023/12/04 00:20:12;;;;;;;;;;;6.80;76.00;;;;;;4996622;28;87105;-49
2023/12/04 00:22:38;;;;;;;;;;;6.80;76.00;;;;;;4999884;28;87444;-47
2023/12/04 00:25:04;;;;;;;;;;;6.80;76.10;;;;;;4995854;28;88524;-47
2023/12/04 00:27:30;;;;;;;;;;;6.80;75.90;;;;;;4995954;28;88592;-48
2023/12/04 00:29:56;;;;;;;;;;;6.70;76.00;;;;;;5001925;28;87013;-47
2023/12/04 00:32:21;;;;;;;;;;;6.80;76.00;;;;;;4999436;28;87592;-49
2023/12/04 00:34:47;;;;;;;;;;;6.70;76.50;;;;;;5001616;28;87558;-48
2023/12/04 00:37:12;;;;;;;;;;;6.70;75.90;;;;;;5001885;28;87624;-47
2023/12/04 00:39:38;;;;;;;;;;;6.70;76.00;;;;;;4999011;28;87660;-47
2023/12/04 00:42:03;;;;;;;;;;;6.70;76.60;;;;;;4996621;28;86972;-47
2023/12/04 00:44:29;;;;;;;;;;;6.70;76.00;;;;;;5000678;28;87021;-49
2023/12/04 00:46:54;;;;;;;;;;;6.60;76.20;;;;;;4998719;28;88655;-49
2023/12/04 00:49:20;;;;;;;;;;;6.60;76.10;;;;;;5000853;28;87904;-47
2023/12/04 00:51:45;;;;;;;;;;;6.60;76.20;;;;;;4996248;28;87615;-47
2023/12/04 00:54:11;;;;;;;;;;;6.60;76.10;;;;;;4995752;28;87489;-49
2023/12/04 00:56:40;;;;;;;;;;;6.60;76.20;;;;;;4990763;28;87048;-47
2023/12/04 00:59:07;;;;;;;;;;;6.60;76.10;;;;;;4993665;28;87880;-47
2023/12/04 01:01:32;;;;;;;;;;;6.60;76.20;;;;;;5001177;28;88412;-47
2023/12/04 01:03:59;;;;;;;;;;;6.50;76.90;;;;;;4997833;28;86979;-47
2023/12/04 01:06:25;;;;;;;;;;;6.50;76.30;;;;;;5005605;28;87974;-47
2023/12/04 01:08:50;;;;;;;;;;;6.50;76.20;;;;;;5001092;28;87074;-49
2023/12/04 01:11:17;;;;;;;;;;;6.50;76.30;;;;;;4999039;28;86948;-48
2023/12/04 01:13:42;;;;;;;;;;;6.50;76.20;;;;;;4993828;28;88419;-47
2023/12/04 01:16:09;;;;;;;;;;;6.50;76.10;;;;;;5002131;28;87876;-49
2023/12/04 01:18:35;;;;;;;;;;;6.40;76.10;;;;;;4998509;28;87921;-47
2023/12/04 01:21:00;;;;;;;;;;;6.50;76.20;;;;;;4999285;28;87351;-48
2023/12/04 01:23:26;;;;;;;;;;;6.40;76.20;;;;;;4994692;28;87001;-48
2023/12/04 01:25:52;;;;;;;;;;;6.40;76.10;;;;;;5000960;28;88702;-49
2023/12/04 01:28:17;;;;;;;;;;;6.40;76.10;;;;;;5000763;28;86987;-47
2023/12/04 01:30:43;;;;;;;;;;;6.40;76.10;;;;;;4998353;28;86775;-48
2023/12/04 01:33:08;;;;;;;;;;;6.40;76.20;;;;;;4998281;28;87711;-47
2023/12/04 01:35:34;;;;;;;;;;;6.30;76.20;;;;;;4995451;28;87013;-47
2023/12/04 01:37:59;;;;;;;;;;;6.40;76.20;;;;;;4994078;28;87966;-47
2023/12/04 01:40:25;;;;;;;;;;;6.30;76.30;;;;;;4995779;28;87462;-48
2023/12/04 01:42:51;;;;;;;;;;;6.30;76.20;;;;;;4994450;28;86852;-48
2023/12/04 01:45:16;;;;;;;;;;;6.30;76.20;;;;;;4997447;28;86895;-47
2023/12/04 01:47:42;;;;;;;;;;;6.30;76.20;;;;;;4997094;28;87443;-47
2023/12/04 01:50:08;;;;;;;;;;;6.30;76.30;;;;;;4997626;28;86899;-47
2023/12/04 01:52:35;;;;;;;;;;;6.20;76.10;;;;;;5001738;28;89125;-48
2023/12/04 01:55:00;;;;;;;;;;;6.30;76.10;;;;;;4996752;28;86348;-48
2023/12/04 01:57:26;;;;;;;;;;;6.30;76.10;;;;;;5000690;28;86926;-47
2023/12/04 01:59:52;;;;;;;;;;;6.20;76.10;;;;;;4994789;28;87761;-49
2023/12/04 02:02:17;;;;;;;;;;;6.20;76.00;;;;;;4997225;28;88014;-48
2023/12/04 02:04:44;;;;;;;;;;;6.20;75.90;;;;;;4997475;28;87664;-46
2023/12/04 02:07:09;;;;;;;;;;;6.20;75.90;;;;;;4993620;28;87026;-47
2023/12/04 02:09:35;;;;;;;;;;;6.20;76.00;;;;;;5001926;28;86860;-48
2023/12/04 02:12:01;;;;;;;;;;;6.10;76.10;;;;;;4999039;28;87374;-47
2023/12/04 02:14:26;;;;;;;;;;;6.10;76.20;;;;;;4999341;28;87037;-48
2023/12/04 02:16:53;;;;;;;;;;;6.10;76.20;;;;;;4997993;28;87087;-48
2023/12/04 02:19:19;;;;;;;;;;;6.10;76.00;;;;;;4999080;28;86757;-47
2023/12/04 02:21:44;;;;;;;;;;;6.10;76.20;;;;;;5003210;28;88737;-46
2023/12/04 02:24:10;;;;;;;;;;;6.00;76.20;;;;;;4997864;28;88081;-48
2023/12/04 02:26:40;;;;;;;;;;;6.00;76.30;;;;;;4999901;28;88227;-47
2023/12/04 02:29:07;;;;;;;;;;;6.00;76.20;;;;;;5001797;28;87009;-47
2023/12/04 02:31:34;;;;;;;;;;;6.00;76.20;;;;;;5001377;28;86975;-49
2023/12/04 02:34:00;;;;;;;;;;;6.00;76.10;;;;;;4997002;28;87121;-50
2023/12/04 02:36:27;;;;;;;;;;;6.00;76.20;;;;;;4999166;28;86975;-48
2023/12/04 02:38:53;;;;;;;;;;;5.90;76.50;;;;;;5000656;28;87013;-48
2023/12/04 02:41:19;;;;;;;;;;;5.90;76.20;;;;;;4997508;28;87052;-48
2023/12/04 02:43:44;;;;;;;;;;;6.00;76.10;;;;;;5001066;28;86889;-48
2023/12/04 02:46:10;;;;;;;;;;;6.00;76.10;;;;;;5000429;28;88677;-48
2023/12/04 02:48:35;;;;;;;;;;;5.90;76.00;;;;;;4998713;28;88548;-49
2023/12/04 02:51:02;;;;;;;;;;;5.90;75.90;;;;;;4998638;28;88571;-48
2023/12/04 02:53:27;;;;;;;;;;;6.00;76.10;;;;;;4999863;28;87560;-48
2023/12/04 02:55:53;;;;;;;;;;;5.90;76.10;;;;;;4998564;28;86913;-47
2023/12/04 02:58:18;;;;;;;;;;;5.90;76.20;;;;;;4998616;28;88499;-47
2023/12/04 03:00:44;;;;;;;;;;;5.90;76.10;;;;;;5001793;28;87045;-48
2023/12/04 03:03:10;;;;;;;;;;;5.90;76.00;;;;;;4995140;28;87096;-48
2023/12/04 03:05:35;;;;;;;;;;;5.90;76.10;;;;;;4997081;28;88515;-47
2023/12/04 03:08:01;;;;;;;;;;;5.80;76.10;;;;;;5001243;28;86351;-47
2023/12/04 03:10:26;;;;;;;;;;;5.80;76.20;;;;;;4997306;28;87398;-48
2023/12/04 03:12:52;;;;;;;;;;;5.80;76.30;;;;;;5000679;28;87405;-47
2023/12/04 03:15:17;;;;;;;;;;;5.80;76.20;;;;;;5002870;28;87894;-47
2023/12/04 03:17:43;;;;;;;;;;;5.70;76.40;;;;;;4998660;28;87517;-47
2023/12/04 03:20:09;;;;;;;;;;;5.70;76.40;;;;;;4996316;28;87044;-47
2023/12/04 03:22:36;;;;;;;;;;;5.70;76.50;;;;;;5000617;28;87074;-48
2023/12/04 03:25:01;;;;;;;;;;;5.70;76.60;;;;;;5000383;28;87528;-48
2023/12/04 03:27:27;;;;;;;;;;;5.70;76.50;;;;;;4996879;28;86916;-48
2023/12/04 03:29:52;;;;;;;;;;;5.60;76.50;;;;;;5000177;28;87998;-48
2023/12/04 03:32:18;;;;;;;;;;;5.60;76.50;;;;;;4999903;28;87740;-48
2023/12/04 03:34:43;;;;;;;;;;;5.60;76.50;;;;;;5004746;28;87058;-48
2023/12/04 03:37:09;;;;;;;;;;;5.60;76.40;;;;;;5001813;28;87025;-48
2023/12/04 03:39:34;;;;;;;;;;;5.60;76.50;;;;;;4999849;28;87899;-47
2023/12/04 03:42:00;;;;;;;;;;;5.60;76.50;;;;;;4998062;28;87526;-48
2023/12/04 03:44:26;;;;;;;;;;;5.60;76.50;;;;;;4999947;28;86909;-48
2023/12/04 03:46:51;;;;;;;;;;;5.60;76.40;;;;;;4997751;28;87484;-47
2023/12/04 03:49:17;;;;;;;;;;;5.50;76.70;;;;;;4998730;28;88273;-48
2023/12/04 03:51:43;;;;;;;;;;;5.50;76.60;;;;;;4999506;28;86870;-48
2023/12/04 03:54:08;;;;;;;;;;;5.50;76.60;;;;;;4996348;28;87106;-47
2023/12/04 03:56:34;;;;;;;;;;;5.50;76.50;;;;;;4999022;28;86647;-49
2023/12/04 03:58:59;;;;;;;;;;;5.50;76.50;;;;;;4998915;28;87161;-47
2023/12/04 04:01:25;;;;;;;;;;;5.50;76.50;;;;;;4996846;28;87041;-49
2023/12/04 04:03:50;;;;;;;;;;;5.50;76.60;;;;;;4994842;28;88624;-48
2023/12/04 04:06:16;;;;;;;;;;;5.40;76.80;;;;;;4998070;28;87270;-49
2023/12/04 04:08:41;;;;;;;;;;;5.40;77.00;;;;;;4997187;28;88160;-48
2023/12/04 04:11:07;;;;;;;;;;;5.40;77.00;;;;;;4998414;28;88945;-49
2023/12/04 04:13:32;;;;;;;;;;;5.40;76.80;;;;;;5000207;28;87708;-48
2023/12/04 04:15:58;;;;;;;;;;;5.30;77.00;;;;;;4999207;28;86885;-48
2023/12/04 04:18:24;;;;;;;;;;;5.30;77.20;;;;;;4998126;28;88258;-46
2023/12/04 04:20:50;;;;;;;;;;;5.30;77.10;;;;;;5002503;28;87781;-49
2023/12/04 04:23:15;;;;;;;;;;;5.30;77.40;;;;;;5000477;28;87841;-47
2023/12/04 04:25:41;;;;;;;;;;;5.30;77.10;;;;;;5002336;28;86994;-48
2023/12/04 04:28:06;;;;;;;;;;;5.30;77.10;;;;;;4997729;28;87969;-48
2023/12/04 04:30:32;;;;;;;;;;;5.30;76.90;;;;;;4998753;28;87435;-49
2023/12/04 04:32:57;;;;;;;;;;;5.30;76.90;;;;;;4996691;28;87036;-47
2023/12/04 04:35:23;;;;;;;;;;;5.20;77.00;;;;;;4995926;28;87069;-47
2023/12/04 04:37:48;;;;;;;;;;;5.30;77.10;;;;;;4997754;28;87875;-47
2023/12/04 04:40:14;;;;;;;;;;;5.20;77.10;;;;;;4999005;28;86918;-49
2023/12/04 04:42:40;;;;;;;;;;;5.30;77.10;;;;;;4994954;28;86748;-48
2023/12/04 04:45:06;;;;;;;;;;;5.20;77.00;;;;;;4999582;28;86001;-49
2023/12/04 04:47:31;;;;;;;;;;;5.20;77.00;;;;;;4995801;28;87249;-47
2023/12/04 04:49:57;;;;;;;;;;;5.20;76.80;;;;;;4997844;28;86856;-47
2023/12/04 04:52:22;;;;;;;;;;;5.20;77.00;;;;;;4996348;28;87865;-47
2023/12/04 04:54:48;;;;;;;;;;;5.20;77.00;;;;;;4994887;28;88035;-48
2023/12/04 04:57:13;;;;;;;;;;;5.20;77.00;;;;;;4996079;28;88526;-49
2023/12/04 04:59:39;;;;;;;;;;;5.20;76.90;;;;;;5001786;28;86994;-48
2023/12/04 05:02:04;;;;;;;;;;;5.20;77.00;;;;;;4998667;28;86942;-48
2023/12/04 05:04:30;;;;;;;;;;;5.20;77.00;;;;;;4998377;28;86901;-47
2023/12/04 05:06:56;;;;;;;;;;;5.10;76.90;;;;;;4995303;28;87007;-48
2023/12/04 05:09:21;;;;;;;;;;;5.20;76.80;;;;;;5003274;28;86805;-48
2023/12/04 05:11:47;;;;;;;;;;;5.10;77.00;;;;;;5000446;28;87008;-48
2023/12/04 05:14:12;;;;;;;;;;;5.10;76.90;;;;;;4994739;28;87889;-47
2023/12/04 05:16:38;;;;;;;;;;;5.10;77.00;;;;;;4995263;28;88279;-48
2023/12/04 05:19:03;;;;;;;;;;;5.10;76.90;;;;;;4999768;28;87101;-47
2023/12/04 05:21:29;;;;;;;;;;;5.00;77.00;;;;;;4997386;28;87043;-47
2023/12/04 05:23:54;;;;;;;;;;;5.10;77.00;;;;;;4996594;28;88786;-47
2023/12/04 05:26:20;;;;;;;;;;;5.00;77.00;;;;;;4997710;28;87020;-48
2023/12/04 05:28:46;;;;;;;;;;;5.00;76.90;;;;;;4994781;28;88556;-48
2023/12/04 05:31:11;;;;;;;;;;;5.00;77.20;;;;;;4998463;28;86883;-47
2023/12/04 05:33:37;;;;;;;;;;;5.00;77.00;;;;;;4996334;28;87411;-49
2023/12/04 05:36:03;;;;;;;;;;;5.00;77.00;;;;;;4996413;28;87523;-46
2023/12/04 05:38:28;;;;;;;;;;;4.90;76.90;;;;;;4999855;28;88482;-47
2023/12/04 05:40:54;;;;;;;;;;;4.90;76.90;;;;;;5000092;28;87885;-47
2023/12/04 05:43:20;;;;;;;;;;;4.90;76.90;;;;;;5000549;28;88558;-47
2023/12/04 05:45:45;;;;;;;;;;;4.90;76.80;;;;;;4998751;28;87072;-47
2023/12/04 05:48:11;;;;;;;;;;;4.90;76.90;;;;;;5000575;28;88696;-49
2023/12/04 05:50:36;;;;;;;;;;;4.90;77.00;;;;;;4997342;28;86903;-48
2023/12/04 05:53:02;;;;;;;;;;;4.90;77.00;;;;;;5001131;28;86939;-46
2023/12/04 05:55:28;;;;;;;;;;;4.90;77.00;;;;;;5000735;28;88626;-49
2023/12/04 05:57:53;;;;;;;;;;;4.80;77.20;;;;;;4996347;28;86276;-48
2023/12/04 06:00:19;;;;;;;;;;;4.80;77.10;;;;;;4998065;28;86833;-47
2023/12/04 06:02:45;;;;;;;;;;;4.80;77.20;;;;;;5000169;28;87401;-48
2023/12/04 06:05:10;;;;;;;;;;;4.80;77.10;;;;;;5002627;28;88427;-47
2023/12/04 06:07:36;;;;;;;;;;;4.80;77.10;;;;;;4997489;28;87342;-48
2023/12/04 06:10:04;;;;;;;;;;;4.80;77.00;;;;;;5001322;28;86988;-47
2023/12/04 06:12:30;;;;;;;;;;;4.80;77.10;;;;;;5003032;28;88036;-48
2023/12/04 06:14:55;;;;;;;;;;;4.80;77.10;;;;;;4996426;28;87897;-49
2023/12/04 06:17:21;;;;;;;;;;;4.80;77.10;;;;;;4998880;28;87901;-47
2023/12/04 06:19:47;;;;;;;;;;;4.70;77.30;;;;;;5000418;28;87842;-47
2023/12/04 06:22:12;;;;;;;;;;;4.70;77.30;;;;;;5000237;28;87956;-47
2023/12/04 06:24:38;;;;;;;;;;;4.70;77.30;;;;;;4994343;28;87069;-47
2023/12/04 06:27:06;;;;;;;;;;;4.80;77.10;;;;;;4997215;28;87083;-46
2023/12/04 06:29:32;;;;;;;;;;;4.70;77.10;;;;;;5002415;28;88028;-49
2023/12/04 06:31:58;;;;;;;;;;;4.70;77.10;;;;;;5001309;28;87539;-47
2023/12/04 06:34:23;;;;;;;;;;;4.70;77.50;;;;;;4997155;28;88137;-47
2023/12/04 06:36:49;;;;;;;;;;;4.70;77.10;;;;;;5004458;28;87083;-47
2023/12/04 06:39:16;;;;;;;;;;;4.70;77.00;;;;;;5004587;28;87081;-48
2023/12/04 06:41:42;;;;;;;;;;;4.70;76.90;;;;;;4999901;28;88910;-48
2023/12/04 06:44:08;;;;;;;;;;;4.70;77.00;;;;;;5000464;28;87024;-47
2023/12/04 06:46:36;;;;;;;;;;;4.70;76.90;;;;;;4996364;28;87642;-46
2023/12/04 06:49:03;;;;;;;;;;;4.70;76.80;;;;;;5003119;28;87462;-48
2023/12/04 06:51:29;;;;;;;;;;;4.70;76.80;;;;;;4997011;28;87493;-48
2023/12/04 06:53:54;;;;;;;;;;;4.70;76.90;;;;;;4996100;28;89400;-48
2023/12/04 06:56:20;;;;;;;;;;;4.70;76.80;;;;;;5004833;28;87002;-48
2023/12/04 06:58:46;;;;;;;;;;;4.70;76.70;;;;;;4998784;28;86970;-48
2023/12/04 07:01:11;;;;;;;;;;;4.70;76.90;;;;;;5000007;28;87411;-47
2023/12/04 07:03:38;;;;;;;;;;;4.70;76.90;;;;;;4993720;28;87110;-49
2023/12/04 07:06:04;;;;;;;;;;;4.60;76.90;;;;;;5003607;28;86954;-47
2023/12/04 07:08:29;;;;;;;;;;;4.70;76.90;;;;;;4999651;28;89085;-47
2023/12/04 07:10:55;;;;;;;;;;;4.70;76.70;;;;;;4999657;28;86465;-46
2023/12/04 07:13:20;;;;;;;;;;;4.60;77.00;;;;;;4994099;28;87511;-47
2023/12/04 07:15:46;;;;;;;;;;;4.60;76.80;;;;;;4997904;28;86962;-48
2023/12/04 07:18:11;;;;;;;;;;;4.60;76.90;;;;;;4995066;28;88389;-47
2023/12/04 07:20:37;;;;;;;;;;;4.60;76.80;;;;;;4999684;28;87509;-47
2023/12/04 07:23:03;;;;;;;;;;;4.60;76.80;;;;;;5000436;28;87149;-49
2023/12/04 07:25:28;;;;;;;;;;;4.60;76.70;;;;;;4999907;28;87038;-46
2023/12/04 07:27:54;;;;;;;;;;;4.60;76.90;;;;;;5000598;28;87498;-48
2023/12/04 07:30:20;;;;;;;;;;;4.60;76.90;;;;;;5004036;28;87054;-49
2023/12/04 07:32:46;;;;;;;;;;;4.60;76.70;;;;;;4995675;28;87758;-47
2023/12/04 07:35:11;;;;;;;;;;;4.50;76.70;;;;;;5007420;28;87130;-47
2023/12/04 07:37:37;;;;;;;;;;;4.60;76.70;;;;;;4998919;28;88780;-46
2023/12/04 07:40:05;;;;;;;;;;;4.60;76.70;;;;;;4996777;28;87316;-47
2023/12/04 07:42:31;;;;;;;;;;;4.60;76.90;;;;;;4995643;28;87979;-48
2023/12/04 07:44:57;;;;;;;;;;;4.60;76.90;;;;;;4996878;28;87081;-48
2023/12/04 07:47:23;;;;;;;;;;;4.50;77.00;;;;;;4998992;28;88625;-47
2023/12/04 07:49:49;;;;;;;;;;;4.50;77.20;;;;;;4995790;28;87038;-46
2023/12/04 07:52:14;;;;;;;;;;;4.50;77.00;;;;;;5002514;28;88073;-47
2023/12/04 07:54:40;;;;;;;;;;;4.50;77.00;;;;;;5000854;28;86971;-47
2023/12/04 07:57:05;;;;;;;;;;;4.50;77.00;;;;;;4998232;28;88112;-47
2023/12/04 07:59:31;;;;;;;;;;;4.50;76.90;;;;;;4999971;28;86847;-46
2023/12/04 08:01:56;;;;;;;;;;;4.50;77.00;;;;;;4997359;28;87033;-46
2023/12/04 08:04:22;;;;;;;;;;;4.50;77.00;;;;;;4996779;28;87467;-47
2023/12/04 08:06:47;;;;;;;;;;;4.50;76.80;;;;;;4998267;28;88548;-48
2023/12/04 08:09:13;;;;;;;;;;;4.50;76.60;;;;;;4998129;28;87058;-47
2023/12/04 08:11:39;;;;;;;;;;;4.50;76.70;;;;;;4996659;28;87682;-46
2023/12/04 08:14:05;;;;;;;;;;;4.50;76.70;;;;;;5001701;28;87324;-47
2023/12/04 08:16:30;;;;;;;;;;;4.50;76.70;;;;;;4996879;28;87807;-48
2023/12/04 08:18:56;;;;;;;;;;;4.40;76.80;;;;;;4998173;28;87751;-47
2023/12/04 08:21:22;;;;;;;;;;;4.40;76.80;;;;;;4997814;28;86868;-48
2023/12/04 08:23:47;;;;;;;;;;;4.40;76.70;;;;;;4998634;28;87693;-47
2023/12/04 08:26:13;;;;;;;;;;;4.40;76.90;;;;;;4998210;28;87558;-47
2023/12/04 08:28:41;;;;;;;;;;;4.40;76.90;;;;;;4995760;28;87184;-50
2023/12/04 08:31:10;;;;;;;;;;;4.40;76.90;;;;;;4995242;28;87987;-47
2023/12/04 08:33:36;;;;;;;;;;;4.40;76.80;;;;;;4997630;28;88472;-46
2023/12/04 08:36:01;;;;;;;;;;;4.40;76.90;;;;;;5000121;28;86996;-47
2023/12/04 08:38:27;;;;;;;;;;;4.40;76.70;;;;;;4999193;28;87458;-46
2023/12/04 08:40:53;;;;;;;;;;;4.40;76.60;;;;;;4998573;28;86967;-47
2023/12/04 08:43:18;;;;;;;;;;;4.40;76.90;;;;;;4999743;28;86990;-47
2023/12/04 08:45:45;;;;;;;;;;;4.40;76.90;;;;;;4997293;28;87389;-46
2023/12/04 08:48:10;;;;;;;;;;;4.40;76.70;;;;;;4995966;28;86328;-46
2023/12/04 08:50:37;;;;;;;;;;;4.40;76.60;;;;;;4995440;28;86939;-47
2023/12/04 08:53:03;;;;;;;;;;;4.30;76.70;;;;;;4998677;28;87307;-46
2023/12/04 08:55:29;;;;;;;;;;;4.40;76.80;;;;;;4999859;28;87994;-47
2023/12/04 08:57:55;;;;;;;;;;;4.30;76.80;;;;;;4999294;28;87609;-46
2023/12/04 09:00:20;;;;;;;;;;;4.30;76.90;;;;;;4997179;28;86963;-47
2023/12/04 09:02:47;;;;;;;;;;;4.30;76.80;;;;;;4996066;28;86932;-45
2023/12/04 09:05:12;;;;;;;;;;;4.30;76.90;;;;;;4998143;28;87301;-47
2023/12/04 09:07:38;;;;;;;;;;;4.30;76.90;;;;;;5001704;28;88454;-47
2023/12/04 09:10:04;;;;;;;;;;;4.30;77.00;;;;;;4994170;28;87114;-47
2023/12/04 09:12:29;;;;;;;;;;;4.30;77.00;;;;;;4996786;28;88501;-48
2023/12/04 09:14:55;;;;;;;;;;;4.30;77.00;;;;;;4998411;28;86989;-47
2023/12/04 09:17:20;;;;;;;;;;;4.20;77.00;;;;;;4998426;28;87824;-46
2023/12/04 09:19:46;;;;;;;;;;;4.30;77.20;;;;;;4999297;28;89787;-47
2023/12/04 09:22:12;;;;;;;;;;;4.20;77.10;;;;;;4996811;28;87650;-47
2023/12/04 09:24:37;;;;;;;;;;;4.20;77.10;;;;;;4993979;28;87472;-47
2023/12/04 09:27:03;;;;;;;;;;;4.20;77.20;;;;;;4997527;28;86995;-50
2023/12/04 09:29:28;;;;;;;;;;;4.20;77.20;;;;;;4998784;28;87806;-46
2023/12/04 09:31:54;;;;;;;;;;;4.20;77.10;;;;;;4995082;28;87460;-46
2023/12/04 09:34:20;;;;;;;;;;;4.20;77.30;;;;;;4994565;28;87073;-47
2023/12/04 09:36:48;;;;;;;;;;;4.20;77.20;;;;;;4995298;28;86745;-47
2023/12/04 09:39:14;;;;;;;;;;;4.20;77.40;;;;;;5003511;28;87579;-46
2023/12/04 09:41:41;;;;;;;;;;;4.20;77.40;;;;;;4996137;28;88206;-47
2023/12/04 09:44:07;;;;;;;;;;;4.20;77.30;;;;;;5000535;28;88490;-48
2023/12/04 09:46:34;;;;;;;;;;;4.10;77.40;;;;;;4998524;28;87444;-46
2023/12/04 09:48:59;;;;;;;;;;;4.20;77.40;;;;;;4995212;28;86935;-48
2023/12/04 09:51:26;;;;;;;;;;;4.20;77.40;;;;;;4997417;28;88428;-47
2023/12/04 09:53:52;;;;;;;;;;;4.10;77.30;;;;;;4999538;28;86945;-47
2023/12/04 09:56:18;;;;;;;;;;;4.10;77.40;;;;;;4997530;28;87800;-46
2023/12/04 09:58:44;;;;;;;;;;;4.10;77.50;;;;;;4994833;28;86677;-46
2023/12/04 10:01:11;;;;;;;;;;;4.20;77.50;;;;;;5001370;28;86242;-46
2023/12/04 10:03:36;;;;;;;;;;;4.10;77.50;;;;;;4996121;28;87109;-47
2023/12/04 10:06:04;;;;;;;;;;;4.20;77.40;;;;;;4997447;28;87012;-48
2023/12/04 10:08:29;;;;;;;;;;;4.20;77.60;;;;;;4993011;28;87962;-46
2023/12/04 10:10:55;;;;;;;;;;;4.10;77.50;;;;;;4995388;28;87489;-46
2023/12/04 10:13:20;;;;;;;;;;;4.20;77.60;;;;;;4998060;28;87180;-46
2023/12/04 10:15:49;;;;;;;;;;;4.10;77.60;;;;;;4996148;28;87558;-46
2023/12/04 10:18:30;;;;;;;;;;;4.10;77.60;;;;;;4994109;28;88503;-48
2023/12/04 10:20:56;;;;;;;;;;;4.10;77.60;;;;;;4997528;28;87060;-48
2023/12/04 10:23:21;;;;;;;;;;;4.20;77.60;;;;;;5000640;28;87693;-47
2023/12/04 10:25:50;;;;;;;;;;;4.10;77.50;;;;;;4997660;28;86225;-47
2023/12/04 10:28:16;;;;;;;;;;;4.10;77.50;;;;;;4993874;28;87154;-47
2023/12/04 10:30:42;;;;;;;;;;;4.10;77.70;;;;;;4999101;28;87239;-47
2023/12/04 10:33:08;;;;;;;;;;;4.10;77.70;;;;;;4998654;28;88032;-48
2023/12/04 10:35:38;;;;;;;;;;;4.10;77.80;;;;;;5002600;28;87508;-46
2023/12/04 10:38:04;;;;;;;;;;;4.10;77.70;;;;;;5000481;28;87517;-46
2023/12/04 10:40:33;;;;;;;;;;;4.20;77.50;;;;;;4997675;28;87050;-46
2023/12/04 10:43:11;;;;;;;;;;;4.10;77.70;;;;;;5000637;28;87067;-47
2023/12/04 10:45:36;;;;;;;;;;;4.10;77.60;;;;;;5005709;28;87482;-47
2023/12/04 10:48:04;;;;;;;;;;;4.10;77.90;;;;;;4997523;28;86808;-48
2023/12/04 10:50:34;;;;;;;;;;;4.10;77.90;;;;;;5000429;28;87921;-47
2023/12/04 10:53:01;;;;;;;;;;;4.10;78.10;;;;;;4998088;28;87002;-47
2023/12/04 10:55:26;;;;;;;;;;;4.10;78.00;;;;;;4999342;28;87009;-47
2023/12/04 10:57:53;;;;;;;;;;;4.10;78.10;;;;;;4996171;28;88372;-47
2023/12/04 11:00:21;;;;;;;;;;;4.10;78.30;;;;;;4997000;28;86872;-47
2023/12/04 11:02:48;;;;;;;;;;;4.10;78.10;;;;;;5000151;28;88123;-48
2023/12/04 11:05:17;;;;;;;;;;;4.10;78.70;;;;;;5000328;28;87808;-47
2023/12/04 11:07:52;;;;;;;;;;;4.10;78.00;;;;;;5000356;28;86922;-47
2023/12/04 11:10:19;;;;;;;;;;;4.10;78.80;;;;;;4997677;28;88403;-47
2023/12/04 11:12:45;;;;;;;;;;;4.10;78.50;;;;;;5001058;28;86975;-47
2023/12/04 11:15:14;;;;;;;;;;;4.10;78.40;;;;;;4997662;28;86755;-46
2023/12/04 11:17:43;;;;;;;;;;;4.00;78.30;;;;;;4996799;28;87374;-47
2023/12/04 11:20:13;;;;;;;;;;;4.10;78.60;;;;;;5002955;28;86985;-47
2023/12/04 11:22:40;;;;;;;;;;;4.00;78.50;;;;;;5000352;28;87939;-46
2023/12/04 11:25:06;;;;;;;;;;;4.10;78.70;;;;;;4999971;28;88586;-47
2023/12/04 11:27:32;;;;;;;;;;;4.10;78.50;;;;;;5000851;28;87166;-47
2023/12/04 11:29:58;;;;;;;;;;;4.10;78.50;;;;;;5003103;28;86933;-46
2023/12/04 11:32:24;;;;;;;;;;;4.00;78.50;;;;;;4996942;28;86967;-46
2023/12/04 11:34:50;;;;;;;;;;;4.10;78.60;;;;;;4996689;28;87176;-47
2023/12/04 11:37:16;;;;;;;;;;;4.00;78.50;;;;;;4998640;28;88452;-47
2023/12/04 11:39:41;;;;;;;;;;;4.00;78.70;;;;;;4998575;28;86171;-47
2023/12/04 11:42:07;;;;;;;;;;;4.10;78.70;;;;;;4997454;28;86949;-47
2023/12/04 11:44:32;;;;;;;;;;;4.00;78.50;;;;;;4998542;28;87339;-47
2023/12/04 11:47:03;;;;;;;;;;;4.00;78.60;;;;;;4997461;28;87948;-48
2023/12/04 11:49:30;;;;;;;;;;;4.10;78.80;;;;;;5002709;28;87773;-46
2023/12/04 11:51:56;;;;;;;;;;;4.00;79.00;;;;;;5004837;28;87422;-47
2023/12/04 11:54:24;;;;;;;;;;;4.00;78.80;;;;;;4999206;28;87027;-47
2023/12/04 11:56:57;;;;;;;;;;;4.00;78.80;;;;;;4998678;28;88560;-47
2023/12/04 11:59:22;;;;;;;;;;;4.00;78.80;;;;;;5003623;28;87127;-47
2023/12/04 12:01:50;;;;;;;;;;;4.10;79.00;;;;;;4997816;28;86852;-47
2023/12/04 12:04:17;;;;;;;;;;;4.00;78.90;;;;;;4996397;28;86739;-50
2023/12/04 12:06:42;;;;;;;;;;;4.00;79.00;;;;;;5001591;28;86937;-46
2023/12/04 12:09:08;;;;;;;;;;;4.00;79.00;;;;;;4996933;28;88142;-52
2023/12/04 12:11:34;;;;;;;;;;;4.00;79.00;;;;;;4999906;28;88438;-48
2023/12/04 12:14:00;;;;;;;;;;;4.10;78.90;;;;;;5001294;28;87791;-48
2023/12/04 12:16:26;;;;;;;;;;;4.00;78.90;;;;;;4997984;28;88445;-47
2023/12/04 12:18:51;;;;;;;;;;;4.00;79.00;;;;;;4999674;28;87064;-48
2023/12/04 12:21:17;;;;;;;;;;;4.00;79.00;;;;;;4998344;28;86887;-47
2023/12/04 12:23:43;;;;;;;;;;;4.10;79.00;;;;;;4998297;28;87388;-47
2023/12/04 12:26:09;;;;;;;;;;;4.00;79.10;;;;;;4996652;28;87060;-46
2023/12/04 12:28:35;;;;;;;;;;;4.00;79.10;;;;;;4998148;28;86263;-46
2023/12/04 12:31:03;;;;;;;;;;;4.00;79.00;;;;;;4998414;28;87474;-47
2023/12/04 12:33:29;;;;;;;;;;;4.00;79.10;;;;;;5000080;28;86986;-49
2023/12/04 12:35:55;;;;;;;;;;;4.10;79.20;;;;;;4998239;28;88493;-48
2023/12/04 12:38:21;;;;;;;;;;;4.00;79.30;;;;;;5000457;28;87272;-48
2023/12/04 12:40:46;;;;;;;;;;;4.00;79.20;;;;;;4999178;28;86893;-47
2023/12/04 12:43:12;;;;;;;;;;;4.00;79.10;;;;;;5002151;28;88486;-46
2023/12/04 12:45:39;;;;;;;;;;;4.00;79.20;;;;;;4999060;28;87005;-46
2023/12/04 12:48:04;;;;;;;;;;;4.00;79.20;;;;;;4998441;28;87179;-50
2023/12/04 12:50:31;;;;;;;;;;;4.00;79.30;;;;;;4999341;28;87519;-46
2023/12/04 12:52:57;;;;;;;;;;;4.00;79.20;;;;;;5002498;28;87860;-45
2023/12/04 12:55:24;;;;;;;;;;;4.00;79.20;;;;;;4997972;28;86955;-46
2023/12/04 12:57:49;;;;;;;;;;;4.00;79.30;;;;;;4996476;28;86891;-46
2023/12/04 13:00:15;;;;;;;;;;;4.00;79.10;;;;;;4995283;28;87877;-47
2023/12/04 13:02:41;;;;;;;;;;;4.00;79.30;;;;;;4998146;28;87403;-46
2023/12/04 13:05:07;;;;;;;;;;;4.00;79.30;;;;;;4995570;28;86811;-47
2023/12/04 13:07:33;;;;;;;;;;;4.00;79.30;;;;;;4991614;28;87564;-46
2023/12/04 13:09:58;;;;;;;;;;;4.00;79.30;;;;;;4998047;28;87463;-46
2023/12/04 13:12:24;;;;;;;;;;;4.00;79.20;;;;;;4998560;28;88456;-46
2023/12/04 13:14:49;;;;;;;;;;;4.00;79.50;;;;;;5000347;28;86898;-46
2023/12/04 13:17:15;;;;;;;;;;;4.00;79.50;;;;;;4999898;28;86039;-46
2023/12/04 13:19:40;;;;;;;;;;;4.00;79.50;;;;;;4995232;28;87237;-46
2023/12/04 13:22:07;;;;;;;;;;;4.00;79.50;;;;;;4997157;28;87400;-46
2023/12/04 13:24:32;;;;;;;;;;;4.00;79.40;;;;;;4997679;28;87856;-46
2023/12/04 13:26:58;;;;;;;;;;;4.00;79.50;;;;;;4996564;28;88764;-46
2023/12/04 13:29:24;;;;;;;;;;;4.00;79.50;;;;;;4998857;28;89175;-46
2023/12/04 13:31:49;;;;;;;;;;;4.00;79.50;;;;;;4997820;28;87049;-45
2023/12/04 13:34:16;;;;;;;;;;;4.00;79.60;;;;;;5002496;28;87561;-47
2023/12/04 13:36:41;;;;;;;;;;;4.00;79.50;;;;;;5000261;28;88571;-47
2023/12/04 13:39:16;;;;;;;;;;;4.00;80.30;;;;;;4996538;28;86961;-47
2023/12/04 13:44:33;;;;;;;;;;;4.00;79.60;;;;;;4990235;28;87023;-45
2023/12/04 13:46:58;;;;;;;;;;;4.00;79.60;;;;;;5000983;28;87915;-46
2023/12/04 13:49:24;;;;;;;;;;;4.00;79.50;;;;;;4997375;28;88186;-45
2023/12/04 13:51:49;;;;;;;;;;;4.00;79.60;;;;;;4995652;28;87921;-45
2023/12/04 13:54:20;;;;;;;;;;;4.00;79.50;;;;;;4991777;28;87034;-46
2023/12/04 13:56:56;;;;;;;;;;;4.00;79.40;;;;;;4993740;28;88683;-46
2023/12/04 13:59:22;;;;;;;;;;;4.00;79.50;;;;;;5000244;28;87004;-46
2023/12/04 14:01:52;;;;;;;;;;;4.00;79.30;;;;;;4992332;28;88464;-47
2023/12/04 14:04:18;;;;;;;;;;;4.00;79.30;;;;;;4993281;28;87012;-47
2023/12/04 14:06:44;;;;;;;;;;;4.00;80.00;;;;;;5002360;28;87761;-46
2023/12/04 14:09:14;;;;;;;;;;;4.00;79.30;;;;;;5002800;28;89006;-46
2023/12/04 14:11:40;;;;;;;;;;;4.00;79.40;;;;;;4999722;28;87101;-45
2023/12/04 14:14:05;;;;;;;;;;;4.00;79.30;;;;;;4996168;28;87910;-45
2023/12/04 14:16:31;;;;;;;;;;;4.00;79.30;;;;;;5002289;28;88280;-45
2023/12/04 14:18:57;;;;;;;;;;;4.00;79.30;;;;;;4998017;28;89124;-46
2023/12/04 14:21:22;;;;;;;;;;;4.00;79.30;;;;;;4996084;28;87890;-46
2023/12/04 14:23:48;;;;;;;;;;;4.00;79.40;;;;;;5000282;28;87111;-46
2023/12/04 14:26:14;;;;;;;;;;;4.00;79.60;;;;;;4999072;28;86890;-46